sensor_id;sensor_type;location;lat;lon;timestamp;pressure;altitude;pressure_sealevel;temperature;humidity
60055;BME280;45930;53.514;55.904;2024-02-15T00:00:30;50247.28;;;-149.77;83.11
60055;BME280;45930;53.514;55.904;2024-02-15T00:01:32;50227.47;;;-149.77;82.26
60055;BME280;45930;53.514;55.904;2024-02-15T00:02:33;50261.16;;;-149.77;81.52
60055;BME280;45930;53.514;55.904;2024-02-15T00:03:33;50229.44;;;-149.77;80.72
60055;BME280;45930;53.514;55.904;2024-02-15T00:04:36;50277.00;;;-149.77;80.38
60055;BME280;45930;53.514;55.904;2024-02-15T00:05:37;50233.41;;;-149.77;79.94
60055;BME280;45930;53.514;55.904;2024-02-15T00:06:37;50241.34;;;-149.77;78.72
60055;BME280;45930;53.514;55.904;2024-02-15T00:07:38;50261.16;;;-149.77;78.61
60055;BME280;45930;53.514;55.904;2024-02-15T00:08:39;50227.47;;;-149.77;78.30
60055;BME280;45930;53.514;55.904;2024-02-15T00:09:40;50237.38;;;-149.77;78.02
60055;BME280;45930;53.514;55.904;2024-02-15T00:10:40;50235.38;;;-149.77;77.23
60055;BME280;45930;53.514;55.904;2024-02-15T00:11:41;50300.78;;;-149.77;77.14
60055;BME280;45930;53.514;55.904;2024-02-15T00:12:42;50249.25;;;-149.77;77.26
60055;BME280;45930;53.514;55.904;2024-02-15T00:13:43;50267.09;;;-149.77;77.01
60055;BME280;45930;53.514;55.904;2024-02-15T00:14:44;50243.31;;;-149.77;76.77
60055;BME280;45930;53.514;55.904;2024-02-15T00:15:45;50284.91;;;-149.77;76.70
60055;BME280;45930;53.514;55.904;2024-02-15T00:16:48;50245.28;;;-149.77;76.26
60055;BME280;45930;53.514;55.904;2024-02-15T00:17:49;50223.50;;;-149.77;75.52
60055;BME280;45930;53.514;55.904;2024-02-15T00:18:50;50243.31;;;-149.77;74.70
60055;BME280;45930;53.514;55.904;2024-02-15T00:19:51;50239.34;;;-149.77;74.75
60055;BME280;45930;53.514;55.904;2024-02-15T00:20:52;50245.28;;;-149.77;74.04
60055;BME280;45930;53.514;55.904;2024-02-15T00:21:52;50223.50;;;-149.77;73.94
60055;BME280;45930;53.514;55.904;2024-02-15T00:22:54;50280.97;;;-149.77;74.10
60055;BME280;45930;53.514;55.904;2024-02-15T00:23:56;50245.28;;;-149.77;73.86
60055;BME280;45930;53.514;55.904;2024-02-15T00:24:57;50203.69;;;-149.77;73.51
60055;BME280;45930;53.514;55.904;2024-02-15T00:25:59;50245.28;;;-149.77;73.71
60055;BME280;45930;53.514;55.904;2024-02-15T00:27:00;50247.28;;;-149.77;73.15
60055;BME280;45930;53.514;55.904;2024-02-15T00:28:03;50229.44;;;-149.77;73.11
60055;BME280;45930;53.514;55.904;2024-02-15T00:29:04;50233.41;;;-149.77;73.81
60055;BME280;45930;53.514;55.904;2024-02-15T00:30:06;50233.41;;;-149.77;73.97
60055;BME280;45930;53.514;55.904;2024-02-15T00:31:07;50231.44;;;-149.77;74.24
60055;BME280;45930;53.514;55.904;2024-02-15T00:32:09;50245.28;;;-149.77;73.58
60055;BME280;45930;53.514;55.904;2024-02-15T00:33:10;50241.34;;;-149.77;73.56
60055;BME280;45930;53.514;55.904;2024-02-15T00:34:11;50217.56;;;-149.77;73.50
60055;BME280;45930;53.514;55.904;2024-02-15T00:35:12;50257.19;;;-149.77;73.47
60055;BME280;45930;53.514;55.904;2024-02-15T00:36:13;50249.25;;;-149.77;73.48
60055;BME280;45930;53.514;55.904;2024-02-15T00:37:14;50239.34;;;-149.77;74.05
60055;BME280;45930;53.514;55.904;2024-02-15T00:38:15;50245.28;;;-149.77;74.17
60055;BME280;45930;53.514;55.904;2024-02-15T00:39:15;50237.38;;;-149.77;74.03
60055;BME280;45930;53.514;55.904;2024-02-15T00:40:18;50233.41;;;-149.77;74.23
60055;BME280;45930;53.514;55.904;2024-02-15T00:41:20;50253.22;;;-149.77;74.20
60055;BME280;45930;53.514;55.904;2024-02-15T00:42:22;50191.81;;;-149.77;74.12
60055;BME280;45930;53.514;55.904;2024-02-15T00:43:22;50247.28;;;-149.77;73.63
60055;BME280;45930;53.514;55.904;2024-02-15T00:44:23;50255.19;;;-149.77;73.00
60055;BME280;45930;53.514;55.904;2024-02-15T00:45:24;50237.38;;;-149.77;71.81
60055;BME280;45930;53.514;55.904;2024-02-15T00:46:25;50223.50;;;-149.77;71.24
60055;BME280;45930;53.514;55.904;2024-02-15T00:47:29;50267.09;;;-149.77;71.22
60055;BME280;45930;53.514;55.904;2024-02-15T00:48:30;50247.28;;;-149.77;71.12
60055;BME280;45930;53.514;55.904;2024-02-15T00:49:31;50217.56;;;-149.77;71.42
60055;BME280;45930;53.514;55.904;2024-02-15T00:50:32;50231.44;;;-149.77;71.03
60055;BME280;45930;53.514;55.904;2024-02-15T00:51:35;50221.53;;;-149.77;71.38
60055;BME280;45930;53.514;55.904;2024-02-15T00:52:36;50296.81;;;-149.77;70.08
60055;BME280;45930;53.514;55.904;2024-02-15T00:53:37;50233.41;;;-149.77;69.86
60055;BME280;45930;53.514;55.904;2024-02-15T00:54:37;50225.47;;;-149.77;69.10
60055;BME280;45930;53.514;55.904;2024-02-15T00:55:38;50241.34;;;-149.77;69.02
60055;BME280;45930;53.514;55.904;2024-02-15T00:56:39;50215.56;;;-149.77;68.29
60055;BME280;45930;53.514;55.904;2024-02-15T00:57:40;50213.59;;;-149.77;67.48
60055;BME280;45930;53.514;55.904;2024-02-15T00:58:40;50211.63;;;-149.77;67.90
60055;BME280;45930;53.514;55.904;2024-02-15T00:59:41;50241.34;;;-149.77;67.49
60055;BME280;45930;53.514;55.904;2024-02-15T01:00:42;50217.56;;;-149.77;67.99
60055;BME280;45930;53.514;55.904;2024-02-15T01:01:43;50273.03;;;-149.77;67.43
60055;BME280;45930;53.514;55.904;2024-02-15T01:02:43;50203.69;;;-149.77;67.79
60055;BME280;45930;53.514;55.904;2024-02-15T01:03:44;50237.38;;;-149.77;67.85
60055;BME280;45930;53.514;55.904;2024-02-15T01:04:45;50211.63;;;-149.77;67.71
60055;BME280;45930;53.514;55.904;2024-02-15T01:05:46;50267.09;;;-149.77;68.04
60055;BME280;45930;53.514;55.904;2024-02-15T01:06:47;50215.56;;;-149.77;67.78
60055;BME280;45930;53.514;55.904;2024-02-15T01:07:48;50195.75;;;-149.77;67.86
60055;BME280;45930;53.514;55.904;2024-02-15T01:08:52;50245.28;;;-149.77;67.91
60055;BME280;45930;53.514;55.904;2024-02-15T01:09:53;50225.47;;;-149.77;68.15
60055;BME280;45930;53.514;55.904;2024-02-15T01:10:55;50253.22;;;-149.77;67.96
60055;BME280;45930;53.514;55.904;2024-02-15T01:11:56;50253.22;;;-149.77;67.47
60055;BME280;45930;53.514;55.904;2024-02-15T01:12:57;50243.31;;;-149.77;67.72
60055;BME280;45930;53.514;55.904;2024-02-15T01:13:58;50241.34;;;-149.77;68.04
60055;BME280;45930;53.514;55.904;2024-02-15T01:14:59;50227.47;;;-149.77;68.29
60055;BME280;45930;53.514;55.904;2024-02-15T01:15:59;50221.53;;;-149.77;68.50
60055;BME280;45930;53.514;55.904;2024-02-15T01:17:03;50213.59;;;-149.77;68.04
60055;BME280;45930;53.514;55.904;2024-02-15T01:18:04;50205.66;;;-149.77;68.38
60055;BME280;45930;53.514;55.904;2024-02-15T01:19:05;50191.81;;;-149.77;67.71
60055;BME280;45930;53.514;55.904;2024-02-15T01:20:06;50205.66;;;-149.77;68.01
60055;BME280;45930;53.514;55.904;2024-02-15T01:21:07;50253.22;;;-149.77;67.51
60055;BME280;45930;53.514;55.904;2024-02-15T01:22:09;50209.63;;;-149.77;68.14
60055;BME280;45930;53.514;55.904;2024-02-15T01:23:11;50189.81;;;-149.77;67.88
60055;BME280;45930;53.514;55.904;2024-02-15T01:24:12;50219.53;;;-149.77;67.87
60055;BME280;45930;53.514;55.904;2024-02-15T01:25:12;50231.44;;;-149.77;67.95
60055;BME280;45930;53.514;55.904;2024-02-15T01:26:16;50225.47;;;-149.77;67.49
60055;BME280;45930;53.514;55.904;2024-02-15T01:27:16;50189.81;;;-149.77;66.98
60055;BME280;45930;53.514;55.904;2024-02-15T01:28:17;50183.88;;;-149.77;66.26
60055;BME280;45930;53.514;55.904;2024-02-15T01:29:18;50217.56;;;-149.77;66.06
60055;BME280;45930;53.514;55.904;2024-02-15T01:30:19;50221.53;;;-149.77;65.08
60055;BME280;45930;53.514;55.904;2024-02-15T01:31:19;50237.38;;;-149.77;65.01
60055;BME280;45930;53.514;55.904;2024-02-15T01:32:20;50265.09;;;-149.77;65.34
60055;BME280;45930;53.514;55.904;2024-02-15T01:33:21;50265.09;;;-149.77;65.20
60055;BME280;45930;53.514;55.904;2024-02-15T01:34:22;50241.34;;;-149.77;65.42
60055;BME280;45930;53.514;55.904;2024-02-15T01:35:23;50271.06;;;-149.77;65.28
60055;BME280;45930;53.514;55.904;2024-02-15T01:36:24;50219.53;;;-149.77;65.20
60055;BME280;45930;53.514;55.904;2024-02-15T01:37:26;50205.66;;;-149.77;65.47
60055;BME280;45930;53.514;55.904;2024-02-15T01:38:27;50233.41;;;-149.77;65.23
60055;BME280;45930;53.514;55.904;2024-02-15T01:39:28;50205.66;;;-149.77;65.41
60055;BME280;45930;53.514;55.904;2024-02-15T01:40:29;50225.47;;;-149.77;65.57
60055;BME280;45930;53.514;55.904;2024-02-15T01:41:29;50247.28;;;-149.77;64.61
60055;BME280;45930;53.514;55.904;2024-02-15T01:42:30;50237.38;;;-149.77;64.21
60055;BME280;45930;53.514;55.904;2024-02-15T01:43:31;50249.25;;;-149.77;64.05
60055;BME280;45930;53.514;55.904;2024-02-15T01:44:32;50249.25;;;-149.77;63.73
60055;BME280;45930;53.514;55.904;2024-02-15T01:45:32;50249.25;;;-149.77;63.26
60055;BME280;45930;53.514;55.904;2024-02-15T01:46:33;50265.09;;;-149.77;62.96
60055;BME280;45930;53.514;55.904;2024-02-15T01:47:34;50261.16;;;-149.77;62.87
60055;BME280;45930;53.514;55.904;2024-02-15T01:48:36;50237.38;;;-149.77;62.07
60055;BME280;45930;53.514;55.904;2024-02-15T01:49:37;50241.34;;;-149.77;62.30
60055;BME280;45930;53.514;55.904;2024-02-15T01:50:38;50263.13;;;-149.77;62.51
60055;BME280;45930;53.514;55.904;2024-02-15T01:51:40;50219.53;;;-149.77;62.82
60055;BME280;45930;53.514;55.904;2024-02-15T01:52:43;50217.56;;;-149.77;63.63
60055;BME280;45930;53.514;55.904;2024-02-15T01:53:47;50269.06;;;-149.77;64.38
60055;BME280;45930;53.514;55.904;2024-02-15T01:54:52;50245.28;;;-149.77;65.03
60055;BME280;45930;53.514;55.904;2024-02-15T01:55:54;50205.66;;;-149.77;65.25
60055;BME280;45930;53.514;55.904;2024-02-15T01:56:58;50245.28;;;-149.77;65.98
60055;BME280;45930;53.514;55.904;2024-02-15T01:58:00;50249.25;;;-149.77;66.45
60055;BME280;45930;53.514;55.904;2024-02-15T01:59:01;50235.38;;;-149.77;67.36
60055;BME280;45930;53.514;55.904;2024-02-15T02:00:02;50231.44;;;-149.77;67.55
60055;BME280;45930;53.514;55.904;2024-02-15T02:01:05;50257.19;;;-149.77;68.32
60055;BME280;45930;53.514;55.904;2024-02-15T02:02:08;50249.25;;;-149.77;69.03
60055;BME280;45930;53.514;55.904;2024-02-15T02:03:14;50213.59;;;-149.77;70.15
60055;BME280;45930;53.514;55.904;2024-02-15T02:04:15;50195.75;;;-149.77;70.38
60055;BME280;45930;53.514;55.904;2024-02-15T02:05:16;50223.50;;;-149.77;70.31
60055;BME280;45930;53.514;55.904;2024-02-15T02:06:17;50237.38;;;-149.77;71.17
60055;BME280;45930;53.514;55.904;2024-02-15T02:07:18;50243.31;;;-149.77;71.27
60055;BME280;45930;53.514;55.904;2024-02-15T02:08:18;50237.38;;;-149.77;71.27
60055;BME280;45930;53.514;55.904;2024-02-15T02:09:19;50223.50;;;-149.77;71.57
60055;BME280;45930;53.514;55.904;2024-02-15T02:10:20;50243.31;;;-149.77;72.33
60055;BME280;45930;53.514;55.904;2024-02-15T02:11:23;50251.25;;;-149.77;72.43
60055;BME280;45930;53.514;55.904;2024-02-15T02:12:24;50229.44;;;-149.77;72.88
60055;BME280;45930;53.514;55.904;2024-02-15T02:13:27;50217.56;;;-149.77;73.32
60055;BME280;45930;53.514;55.904;2024-02-15T02:14:28;50203.69;;;-149.77;72.98
60055;BME280;45930;53.514;55.904;2024-02-15T02:15:31;50207.66;;;-149.77;73.54
60055;BME280;45930;53.514;55.904;2024-02-15T02:16:32;50239.34;;;-149.77;73.40
60055;BME280;45930;53.514;55.904;2024-02-15T02:17:34;50257.19;;;-149.77;72.90
60055;BME280;45930;53.514;55.904;2024-02-15T02:18:35;50233.41;;;-149.77;73.88
60055;BME280;45930;53.514;55.904;2024-02-15T02:19:36;50211.63;;;-149.77;73.53
60055;BME280;45930;53.514;55.904;2024-02-15T02:20:38;50241.34;;;-149.77;74.08
60055;BME280;45930;53.514;55.904;2024-02-15T02:21:39;50275.00;;;-149.77;73.04
60055;BME280;45930;53.514;55.904;2024-02-15T02:22:41;50207.66;;;-149.77;72.17
60055;BME280;45930;53.514;55.904;2024-02-15T02:23:42;50233.41;;;-149.77;71.37
60055;BME280;45930;53.514;55.904;2024-02-15T02:26:06;50241.34;;;-149.77;71.05
60055;BME280;45930;53.514;55.904;2024-02-15T02:27:11;50239.34;;;-149.77;70.69
60055;BME280;45930;53.514;55.904;2024-02-15T02:28:15;50209.63;;;-149.77;70.29
60055;BME280;45930;53.514;55.904;2024-02-15T02:29:19;50257.19;;;-149.77;69.05
60055;BME280;45930;53.514;55.904;2024-02-15T02:30:21;50245.28;;;-149.77;69.00
60055;BME280;45930;53.514;55.904;2024-02-15T02:31:22;50233.41;;;-149.77;69.54
60055;BME280;45930;53.514;55.904;2024-02-15T02:32:23;50255.19;;;-149.77;69.64
60055;BME280;45930;53.514;55.904;2024-02-15T02:33:24;50261.16;;;-149.77;70.09
60055;BME280;45930;53.514;55.904;2024-02-15T02:34:28;50243.31;;;-149.77;70.22
60055;BME280;45930;53.514;55.904;2024-02-15T02:35:32;50233.41;;;-149.77;70.40
60055;BME280;45930;53.514;55.904;2024-02-15T02:36:33;50259.16;;;-149.77;70.78
60055;BME280;45930;53.514;55.904;2024-02-15T02:37:34;50263.13;;;-149.77;70.62
60055;BME280;45930;53.514;55.904;2024-02-15T02:38:37;50251.25;;;-149.77;70.88
60055;BME280;45930;53.514;55.904;2024-02-15T02:39:38;50249.25;;;-149.77;71.83
60055;BME280;45930;53.514;55.904;2024-02-15T02:40:39;50280.97;;;-149.77;70.88
60055;BME280;45930;53.514;55.904;2024-02-15T02:41:40;50269.06;;;-149.77;71.66
60055;BME280;45930;53.514;55.904;2024-02-15T02:42:52;50275.00;;;-149.77;71.17
60055;BME280;45930;53.514;55.904;2024-02-15T02:43:56;50257.19;;;-149.77;71.25
60055;BME280;45930;53.514;55.904;2024-02-15T02:44:57;50257.19;;;-149.77;70.78
60055;BME280;45930;53.514;55.904;2024-02-15T02:46:01;50265.09;;;-149.77;71.34
60055;BME280;45930;53.514;55.904;2024-02-15T02:47:01;50257.19;;;-149.77;71.20
60055;BME280;45930;53.514;55.904;2024-02-15T02:48:02;50233.41;;;-149.77;72.35
60055;BME280;45930;53.514;55.904;2024-02-15T02:49:03;50249.25;;;-149.77;72.55
60055;BME280;45930;53.514;55.904;2024-02-15T02:50:04;50269.06;;;-149.77;72.44
60055;BME280;45930;53.514;55.904;2024-02-15T02:51:07;50255.19;;;-149.77;72.45
60055;BME280;45930;53.514;55.904;2024-02-15T02:52:08;50280.97;;;-149.77;72.87
60055;BME280;45930;53.514;55.904;2024-02-15T02:53:08;50241.34;;;-149.77;73.49
60055;BME280;45930;53.514;55.904;2024-02-15T02:54:11;50261.16;;;-149.77;74.17
60055;BME280;45930;53.514;55.904;2024-02-15T02:55:12;50273.03;;;-149.77;74.27
60055;BME280;45930;53.514;55.904;2024-02-15T02:56:12;50245.28;;;-149.77;74.47
60055;BME280;45930;53.514;55.904;2024-02-15T02:57:13;50292.84;;;-149.77;74.95
60055;BME280;45930;53.514;55.904;2024-02-15T02:58:14;50269.06;;;-149.77;75.52
60055;BME280;45930;53.514;55.904;2024-02-15T02:59:15;50269.06;;;-149.77;76.14
60055;BME280;45930;53.514;55.904;2024-02-15T03:00:17;50243.31;;;-149.77;75.58
60055;BME280;45930;53.514;55.904;2024-02-15T03:01:18;50257.19;;;-149.77;75.83
60055;BME280;45930;53.514;55.904;2024-02-15T03:02:19;50298.78;;;-149.77;75.98
60055;BME280;45930;53.514;55.904;2024-02-15T03:03:19;50267.09;;;-149.77;76.10
60055;BME280;45930;53.514;55.904;2024-02-15T03:04:20;50286.91;;;-149.77;76.16
60055;BME280;45930;53.514;55.904;2024-02-15T03:05:21;50251.25;;;-149.77;76.53
60055;BME280;45930;53.514;55.904;2024-02-15T03:06:22;50251.25;;;-149.77;76.36
60055;BME280;45930;53.514;55.904;2024-02-15T03:07:25;50269.06;;;-149.77;76.31
60055;BME280;45930;53.514;55.904;2024-02-15T03:08:26;50259.16;;;-149.77;76.41
60055;BME280;45930;53.514;55.904;2024-02-15T03:09:27;50277.00;;;-149.77;76.19
60055;BME280;45930;53.514;55.904;2024-02-15T03:10:29;50265.09;;;-149.77;75.36
60055;BME280;45930;53.514;55.904;2024-02-15T03:11:30;50300.78;;;-149.77;75.78
60055;BME280;45930;53.514;55.904;2024-02-15T03:12:32;50265.09;;;-149.77;75.19
60055;BME280;45930;53.514;55.904;2024-02-15T03:13:35;50249.25;;;-149.77;75.39
60055;BME280;45930;53.514;55.904;2024-02-15T03:14:36;50259.16;;;-149.77;75.15
60055;BME280;45930;53.514;55.904;2024-02-15T03:15:37;50245.28;;;-149.77;75.12
60055;BME280;45930;53.514;55.904;2024-02-15T03:16:38;50263.13;;;-149.77;74.42
60055;BME280;45930;53.514;55.904;2024-02-15T03:17:43;50280.97;;;-149.77;74.71
60055;BME280;45930;53.514;55.904;2024-02-15T03:18:44;50267.09;;;-149.77;74.82
60055;BME280;45930;53.514;55.904;2024-02-15T03:19:45;50251.25;;;-149.77;74.22
60055;BME280;45930;53.514;55.904;2024-02-15T03:20:46;50277.00;;;-149.77;74.05
60055;BME280;45930;53.514;55.904;2024-02-15T03:21:46;50275.00;;;-149.77;74.76
60055;BME280;45930;53.514;55.904;2024-02-15T03:22:54;50249.25;;;-149.77;74.86
60055;BME280;45930;53.514;55.904;2024-02-15T03:23:55;50265.09;;;-149.77;74.63
60055;BME280;45930;53.514;55.904;2024-02-15T03:24:55;50275.00;;;-149.77;74.23
60055;BME280;45930;53.514;55.904;2024-02-15T03:25:56;50273.03;;;-149.77;74.23
60055;BME280;45930;53.514;55.904;2024-02-15T03:26:57;50249.25;;;-149.77;74.57
60055;BME280;45930;53.514;55.904;2024-02-15T03:27:59;50269.06;;;-149.77;74.16
60055;BME280;45930;53.514;55.904;2024-02-15T03:29:04;50237.38;;;-149.77;73.68
60055;BME280;45930;53.514;55.904;2024-02-15T03:30:05;50280.97;;;-149.77;73.47
60055;BME280;45930;53.514;55.904;2024-02-15T03:31:07;50261.16;;;-149.77;73.32
60055;BME280;45930;53.514;55.904;2024-02-15T03:32:08;50261.16;;;-149.77;72.96
60055;BME280;45930;53.514;55.904;2024-02-15T03:33:10;50255.19;;;-149.77;72.13
60055;BME280;45930;53.514;55.904;2024-02-15T03:34:10;50277.00;;;-149.77;71.56
60055;BME280;45930;53.514;55.904;2024-02-15T03:35:11;50265.09;;;-149.77;71.02
60055;BME280;45930;53.514;55.904;2024-02-15T03:36:16;50261.16;;;-149.77;71.39
60055;BME280;45930;53.514;55.904;2024-02-15T03:37:18;50245.28;;;-149.77;72.24
60055;BME280;45930;53.514;55.904;2024-02-15T03:38:21;50231.44;;;-149.77;72.56
60055;BME280;45930;53.514;55.904;2024-02-15T03:39:21;50253.22;;;-149.77;73.19
60055;BME280;45930;53.514;55.904;2024-02-15T03:40:24;50261.16;;;-149.77;73.72
60055;BME280;45930;53.514;55.904;2024-02-15T03:41:27;50294.81;;;-149.77;74.73
60055;BME280;45930;53.514;55.904;2024-02-15T03:42:33;50223.50;;;-149.77;74.71
60055;BME280;45930;53.514;55.904;2024-02-15T03:43:34;50265.09;;;-149.77;75.29
60055;BME280;45930;53.514;55.904;2024-02-15T03:44:34;50265.09;;;-149.77;75.61
60055;BME280;45930;53.514;55.904;2024-02-15T03:45:35;50245.28;;;-149.77;76.04
60055;BME280;45930;53.514;55.904;2024-02-15T03:46:37;50286.91;;;-149.77;76.10
60055;BME280;45930;53.514;55.904;2024-02-15T03:47:38;50278.97;;;-149.77;75.78
60055;BME280;45930;53.514;55.904;2024-02-15T03:48:39;50251.25;;;-149.77;75.93
60055;BME280;45930;53.514;55.904;2024-02-15T03:49:40;50241.34;;;-149.77;75.70
60055;BME280;45930;53.514;55.904;2024-02-15T03:50:42;50245.28;;;-149.77;75.76
60055;BME280;45930;53.514;55.904;2024-02-15T03:51:43;50223.50;;;-149.77;76.10
60055;BME280;45930;53.514;55.904;2024-02-15T03:52:45;50247.28;;;-149.77;76.14
60055;BME280;45930;53.514;55.904;2024-02-15T03:53:46;50261.16;;;-149.77;75.99
60055;BME280;45930;53.514;55.904;2024-02-15T03:54:49;50257.19;;;-149.77;76.07
60055;BME280;45930;53.514;55.904;2024-02-15T03:55:49;50255.19;;;-149.77;76.17
60055;BME280;45930;53.514;55.904;2024-02-15T03:56:54;50261.16;;;-149.77;75.66
60055;BME280;45930;53.514;55.904;2024-02-15T03:57:55;50259.16;;;-149.77;75.65
60055;BME280;45930;53.514;55.904;2024-02-15T03:58:57;50225.47;;;-149.77;74.77
60055;BME280;45930;53.514;55.904;2024-02-15T03:59:58;50203.69;;;-149.77;74.39
60055;BME280;45930;53.514;55.904;2024-02-15T04:00:59;50245.28;;;-149.77;74.05
60055;BME280;45930;53.514;55.904;2024-02-15T04:02:00;50239.34;;;-149.77;73.96
60055;BME280;45930;53.514;55.904;2024-02-15T04:03:03;50225.47;;;-149.77;73.62
60055;BME280;45930;53.514;55.904;2024-02-15T04:04:05;50251.25;;;-149.77;73.64
60055;BME280;45930;53.514;55.904;2024-02-15T04:05:06;50261.16;;;-149.77;73.09
60055;BME280;45930;53.514;55.904;2024-02-15T04:06:08;50221.53;;;-149.77;72.82
60055;BME280;45930;53.514;55.904;2024-02-15T04:07:09;50261.16;;;-149.77;72.19
60055;BME280;45930;53.514;55.904;2024-02-15T04:08:12;50249.25;;;-149.77;72.26
60055;BME280;45930;53.514;55.904;2024-02-15T04:09:13;50221.53;;;-149.77;71.95
60055;BME280;45930;53.514;55.904;2024-02-15T04:10:13;50257.19;;;-149.77;71.21
60055;BME280;45930;53.514;55.904;2024-02-15T04:11:25;50241.34;;;-149.77;70.03
60055;BME280;45930;53.514;55.904;2024-02-15T04:12:26;50241.34;;;-149.77;69.21
60055;BME280;45930;53.514;55.904;2024-02-15T04:13:27;50225.47;;;-149.77;67.79
60055;BME280;45930;53.514;55.904;2024-02-15T04:14:28;50245.28;;;-149.77;67.20
60055;BME280;45930;53.514;55.904;2024-02-15T04:15:28;50257.19;;;-149.77;66.75
60055;BME280;45930;53.514;55.904;2024-02-15T04:16:29;50241.34;;;-149.77;66.13
60055;BME280;45930;53.514;55.904;2024-02-15T04:17:31;50239.34;;;-149.77;66.82
60055;BME280;45930;53.514;55.904;2024-02-15T04:18:35;50237.38;;;-149.77;66.51
60055;BME280;45930;53.514;55.904;2024-02-15T04:19:36;50213.59;;;-149.77;66.54
60055;BME280;45930;53.514;55.904;2024-02-15T04:20:37;50205.66;;;-149.77;66.54
60055;BME280;45930;53.514;55.904;2024-02-15T04:21:38;50225.47;;;-149.77;66.95
60055;BME280;45930;53.514;55.904;2024-02-15T04:22:40;50253.22;;;-149.77;68.36
60055;BME280;45930;53.514;55.904;2024-02-15T04:23:42;50231.44;;;-149.77;68.05
60055;BME280;45930;53.514;55.904;2024-02-15T04:24:45;50223.50;;;-149.77;67.91
60055;BME280;45930;53.514;55.904;2024-02-15T04:25:46;50185.84;;;-149.77;68.02
60055;BME280;45930;53.514;55.904;2024-02-15T04:26:51;50251.25;;;-149.77;68.37
60055;BME280;45930;53.514;55.904;2024-02-15T04:27:52;50237.38;;;-149.77;68.74
60055;BME280;45930;53.514;55.904;2024-02-15T04:28:53;50229.44;;;-149.77;68.59
60055;BME280;45930;53.514;55.904;2024-02-15T04:29:54;50213.59;;;-149.77;68.53
60055;BME280;45930;53.514;55.904;2024-02-15T04:30:55;50213.59;;;-149.77;67.41
60055;BME280;45930;53.514;55.904;2024-02-15T04:31:55;50185.84;;;-149.77;66.09
60055;BME280;45930;53.514;55.904;2024-02-15T04:32:57;50241.34;;;-149.77;64.47
60055;BME280;45930;53.514;55.904;2024-02-15T04:33:57;50217.56;;;-149.77;63.54
60055;BME280;45930;53.514;55.904;2024-02-15T04:35:00;50221.53;;;-149.77;64.05
60055;BME280;45930;53.514;55.904;2024-02-15T04:36:01;50225.47;;;-149.77;63.77
60055;BME280;45930;53.514;55.904;2024-02-15T04:37:07;50201.72;;;-149.77;63.40
60055;BME280;45930;53.514;55.904;2024-02-15T04:38:07;50209.63;;;-149.77;63.33
60055;BME280;45930;53.514;55.904;2024-02-15T04:39:09;50193.78;;;-149.77;64.15
60055;BME280;45930;53.514;55.904;2024-02-15T04:40:12;50219.53;;;-149.77;64.30
60055;BME280;45930;53.514;55.904;2024-02-15T04:41:14;50195.75;;;-149.77;63.82
60055;BME280;45930;53.514;55.904;2024-02-15T04:42:15;50213.59;;;-149.77;64.45
60055;BME280;45930;53.514;55.904;2024-02-15T04:43:18;50203.69;;;-149.77;64.83
60055;BME280;45930;53.514;55.904;2024-02-15T04:44:19;50203.69;;;-149.77;64.45
60055;BME280;45930;53.514;55.904;2024-02-15T04:45:27;50237.38;;;-149.77;65.46
60055;BME280;45930;53.514;55.904;2024-02-15T04:46:39;50183.88;;;-149.77;65.99
60055;BME280;45930;53.514;55.904;2024-02-15T04:47:41;50172.00;;;-149.77;66.88
60055;BME280;45930;53.514;55.904;2024-02-15T04:48:46;50181.91;;;-149.77;67.33
60055;BME280;45930;53.514;55.904;2024-02-15T04:49:46;50170.00;;;-149.77;67.11
60055;BME280;45930;53.514;55.904;2024-02-15T04:50:47;50144.25;;;-149.77;67.11
60055;BME280;45930;53.514;55.904;2024-02-15T04:51:49;50164.06;;;-149.77;67.29
60055;BME280;45930;53.514;55.904;2024-02-15T04:52:50;50158.13;;;-149.77;67.84
60055;BME280;45930;53.514;55.904;2024-02-15T04:53:50;50128.41;;;-149.77;68.11
60055;BME280;45930;53.514;55.904;2024-02-15T04:54:51;50170.00;;;-149.77;68.44
60055;BME280;45930;53.514;55.904;2024-02-15T04:55:55;50146.22;;;-149.77;68.73
60055;BME280;45930;53.514;55.904;2024-02-15T04:56:56;50156.13;;;-149.77;69.61
60055;BME280;45930;53.514;55.904;2024-02-15T04:57:57;50160.09;;;-149.77;71.38
60055;BME280;45930;53.514;55.904;2024-02-15T04:58:58;50156.13;;;-149.77;72.42
60055;BME280;45930;53.514;55.904;2024-02-15T04:59:58;50162.09;;;-149.77;72.93
60055;BME280;45930;53.514;55.904;2024-02-15T05:01:00;50172.00;;;-149.77;73.60
60055;BME280;45930;53.514;55.904;2024-02-15T05:02:01;50126.41;;;-149.77;74.68
60055;BME280;45930;53.514;55.904;2024-02-15T05:03:02;50110.56;;;-149.77;75.32
60055;BME280;45930;53.514;55.904;2024-02-15T05:04:03;50104.63;;;-149.77;76.35
60055;BME280;45930;53.514;55.904;2024-02-15T05:05:07;50134.34;;;-149.77;77.21
60055;BME280;45930;53.514;55.904;2024-02-15T05:06:08;50162.09;;;-149.77;77.48
60055;BME280;45930;53.514;55.904;2024-02-15T05:07:10;50102.66;;;-149.77;77.60
60055;BME280;45930;53.514;55.904;2024-02-15T05:08:11;50166.03;;;-149.77;78.27
60055;BME280;45930;53.514;55.904;2024-02-15T05:09:12;50102.66;;;-149.77;78.13
60055;BME280;45930;53.514;55.904;2024-02-15T05:10:13;50150.19;;;-149.77;78.09
60055;BME280;45930;53.514;55.904;2024-02-15T05:11:15;50142.28;;;-149.77;78.95
60055;BME280;45930;53.514;55.904;2024-02-15T05:12:22;50126.41;;;-149.77;80.03
60055;BME280;45930;53.514;55.904;2024-02-15T05:13:24;50116.50;;;-149.77;80.98
60055;BME280;45930;53.514;55.904;2024-02-15T05:14:25;50108.59;;;-149.77;81.34
60055;BME280;45930;53.514;55.904;2024-02-15T05:15:27;50150.19;;;-149.77;80.65